sensor_id;sensor_type;location;lat;lon;timestamp;temperature;humidity
16964;DHT22;8598;50.508;10.436;2023-05-10T00:00:18;14.30;99.90
16964;DHT22;8598;50.508;10.436;2023-05-10T00:02:45;14.20;99.90
16964;DHT22;8598;50.508;10.436;2023-05-10T00:05:12;14.20;99.90
16964;DHT22;8598;50.508;10.436;2023-05-10T00:07:39;14.10;99.90
16964;DHT22;8598;50.508;10.436;2023-05-10T00:10:06;14.10;99.90
16964;DHT22;8598;50.508;10.436;2023-05-10T00:12:33;14.10;99.90
16964;DHT22;8598;50.508;10.436;2023-05-10T00:15:01;14.00;99.90
16964;DHT22;8598;50.508;10.436;2023-05-10T00:17:28;13.90;99.90
16964;DHT22;8598;50.508;10.436;2023-05-10T00:19:54;13.90;99.90
16964;DHT22;8598;50.508;10.436;2023-05-10T00:22:21;13.80;99.90
16964;DHT22;8598;50.508;10.436;2023-05-10T00:24:48;13.80;99.90
16964;DHT22;8598;50.508;10.436;2023-05-10T00:27:14;13.70;99.90
16964;DHT22;8598;50.508;10.436;2023-05-10T00:29:41;13.70;99.90
16964;DHT22;8598;50.508;10.436;2023-05-10T00:32:09;13.60;99.90
16964;DHT22;8598;50.508;10.436;2023-05-10T00:34:36;13.60;99.90
16964;DHT22;8598;50.508;10.436;2023-05-10T00:37:02;13.50;99.90
16964;DHT22;8598;50.508;10.436;2023-05-10T00:39:29;13.40;99.90
16964;DHT22;8598;50.508;10.436;2023-05-10T00:41:55;13.40;99.90
16964;DHT22;8598;50.508;10.436;2023-05-10T00:44:22;13.30;99.90
16964;DHT22;8598;50.508;10.436;2023-05-10T00:46:49;13.30;99.90
16964;DHT22;8598;50.508;10.436;2023-05-10T00:49:17;13.10;99.90
16964;DHT22;8598;50.508;10.436;2023-05-10T00:51:44;12.80;99.90
16964;DHT22;8598;50.508;10.436;2023-05-10T00:54:12;13.00;99.90
16964;DHT22;8598;50.508;10.436;2023-05-10T00:56:40;12.80;99.90
16964;DHT22;8598;50.508;10.436;2023-05-10T00:59:08;12.80;99.90
16964;DHT22;8598;50.508;10.436;2023-05-10T01:01:35;12.70;99.90
16964;DHT22;8598;50.508;10.436;2023-05-10T01:04:02;12.60;99.90
16964;DHT22;8598;50.508;10.436;2023-05-10T01:06:30;12.50;99.90
16964;DHT22;8598;50.508;10.436;2023-05-10T01:08:57;12.50;99.90
16964;DHT22;8598;50.508;10.436;2023-05-10T01:11:24;12.40;99.90
16964;DHT22;8598;50.508;10.436;2023-05-10T01:13:55;12.40;99.90
16964;DHT22;8598;50.508;10.436;2023-05-10T01:16:22;12.30;99.90
16964;DHT22;8598;50.508;10.436;2023-05-10T01:18:51;12.30;99.90
16964;DHT22;8598;50.508;10.436;2023-05-10T01:21:23;12.30;99.90
16964;DHT22;8598;50.508;10.436;2023-05-10T01:24:13;12.30;99.90
16964;DHT22;8598;50.508;10.436;2023-05-10T01:27:07;12.20;99.90
16964;DHT22;8598;50.508;10.436;2023-05-10T01:32:45;12.20;99.90
16964;DHT22;8598;50.508;10.436;2023-05-10T01:35:18;12.20;99.90
16964;DHT22;8598;50.508;10.436;2023-05-10T01:37:52;12.20;99.90
16964;DHT22;8598;50.508;10.436;2023-05-10T01:40:32;12.10;99.90
16964;DHT22;8598;50.508;10.436;2023-05-10T01:43:01;12.10;99.90
16964;DHT22;8598;50.508;10.436;2023-05-10T01:45:33;12.00;99.90
16964;DHT22;8598;50.508;10.436;2023-05-10T01:48:06;12.00;99.90
16964;DHT22;8598;50.508;10.436;2023-05-10T01:50:36;11.90;99.90
16964;DHT22;8598;50.508;10.436;2023-05-10T01:53:05;11.90;99.90
16964;DHT22;8598;50.508;10.436;2023-05-10T01:55:35;12.00;99.90
16964;DHT22;8598;50.508;10.436;2023-05-10T01:58:05;12.00;99.90
16964;DHT22;8598;50.508;10.436;2023-05-10T02:00:34;11.90;99.90
16964;DHT22;8598;50.508;10.436;2023-05-10T02:03:06;12.00;99.90
16964;DHT22;8598;50.508;10.436;2023-05-10T02:05:34;12.00;99.90
16964;DHT22;8598;50.508;10.436;2023-05-10T02:08:03;12.00;99.90
16964;DHT22;8598;50.508;10.436;2023-05-10T02:10:32;12.10;99.90
16964;DHT22;8598;50.508;10.436;2023-05-10T02:13:00;12.00;99.90
16964;DHT22;8598;50.508;10.436;2023-05-10T02:15:29;12.00;99.90
16964;DHT22;8598;50.508;10.436;2023-05-10T02:17:57;12.00;99.90
16964;DHT22;8598;50.508;10.436;2023-05-10T02:20:26;11.90;99.90
16964;DHT22;8598;50.508;10.436;2023-05-10T02:22:55;12.00;99.90
16964;DHT22;8598;50.508;10.436;2023-05-10T02:25:23;12.00;99.90
16964;DHT22;8598;50.508;10.436;2023-05-10T02:27:51;11.90;99.90
16964;DHT22;8598;50.508;10.436;2023-05-10T02:30:20;12.00;99.90
16964;DHT22;8598;50.508;10.436;2023-05-10T02:32:49;11.90;99.90
16964;DHT22;8598;50.508;10.436;2023-05-10T02:35:16;12.00;99.90
16964;DHT22;8598;50.508;10.436;2023-05-10T02:37:45;12.00;99.90
16964;DHT22;8598;50.508;10.436;2023-05-10T02:40:14;12.00;99.90
16964;DHT22;8598;50.508;10.436;2023-05-10T02:42:42;12.00;99.90
16964;DHT22;8598;50.508;10.436;2023-05-10T02:45:12;12.00;99.90
16964;DHT22;8598;50.508;10.436;2023-05-10T02:47:39;11.90;99.90
16964;DHT22;8598;50.508;10.436;2023-05-10T02:50:07;12.00;99.90
16964;DHT22;8598;50.508;10.436;2023-05-10T02:52:39;12.00;99.90
16964;DHT22;8598;50.508;10.436;2023-05-10T02:55:09;12.00;99.90
16964;DHT22;8598;50.508;10.436;2023-05-10T02:57:41;12.00;99.90
16964;DHT22;8598;50.508;10.436;2023-05-10T03:00:10;12.10;99.90
16964;DHT22;8598;50.508;10.436;2023-05-10T03:02:37;12.10;99.90
16964;DHT22;8598;50.508;10.436;2023-05-10T03:05:04;12.10;99.90
16964;DHT22;8598;50.508;10.436;2023-05-10T03:07:30;12.10;99.90
16964;DHT22;8598;50.508;10.436;2023-05-10T03:09:57;12.10;99.90
16964;DHT22;8598;50.508;10.436;2023-05-10T03:12:33;12.10;99.90
16964;DHT22;8598;50.508;10.436;2023-05-10T03:15:11;12.20;99.90
16964;DHT22;8598;50.508;10.436;2023-05-10T03:17:46;12.20;99.90
16964;DHT22;8598;50.508;10.436;2023-05-10T03:20:20;12.30;99.90
16964;DHT22;8598;50.508;10.436;2023-05-10T03:22:52;12.30;99.90
16964;DHT22;8598;50.508;10.436;2023-05-10T03:25:21;12.40;99.90
16964;DHT22;8598;50.508;10.436;2023-05-10T03:27:50;12.40;99.90
16964;DHT22;8598;50.508;10.436;2023-05-10T03:30:18;12.30;99.90
16964;DHT22;8598;50.508;10.436;2023-05-10T03:32:45;12.30;99.90
16964;DHT22;8598;50.508;10.436;2023-05-10T03:35:12;12.40;99.90
16964;DHT22;8598;50.508;10.436;2023-05-10T03:37:39;12.40;99.90
16964;DHT22;8598;50.508;10.436;2023-05-10T03:40:07;12.40;99.90
16964;DHT22;8598;50.508;10.436;2023-05-10T03:42:34;12.40;99.90
16964;DHT22;8598;50.508;10.436;2023-05-10T03:45:02;12.40;99.90
16964;DHT22;8598;50.508;10.436;2023-05-10T03:47:29;12.40;99.90
16964;DHT22;8598;50.508;10.436;2023-05-10T03:49:56;12.40;99.90
16964;DHT22;8598;50.508;10.436;2023-05-10T03:52:22;12.50;99.90
16964;DHT22;8598;50.508;10.436;2023-05-10T03:54:49;12.50;99.90
16964;DHT22;8598;50.508;10.436;2023-05-10T03:57:15;12.50;99.90
16964;DHT22;8598;50.508;10.436;2023-05-10T03:59:42;12.50;99.90
16964;DHT22;8598;50.508;10.436;2023-05-10T04:02:10;12.50;99.90
16964;DHT22;8598;50.508;10.436;2023-05-10T04:04:36;12.50;99.90
16964;DHT22;8598;50.508;10.436;2023-05-10T04:07:03;12.60;99.90
16964;DHT22;8598;50.508;10.436;2023-05-10T04:09:30;12.50;99.90
16964;DHT22;8598;50.508;10.436;2023-05-10T04:11:56;12.60;99.90
16964;DHT22;8598;50.508;10.436;2023-05-10T04:14:24;12.60;99.90
16964;DHT22;8598;50.508;10.436;2023-05-10T04:16:51;12.60;99.90
16964;DHT22;8598;50.508;10.436;2023-05-10T04:19:19;12.60;99.90
16964;DHT22;8598;50.508;10.436;2023-05-10T04:21:45;12.60;99.90
16964;DHT22;8598;50.508;10.436;2023-05-10T04:24:12;12.60;99.90
16964;DHT22;8598;50.508;10.436;2023-05-10T04:26:39;12.70;99.90
16964;DHT22;8598;50.508;10.436;2023-05-10T04:29:05;12.70;99.90
16964;DHT22;8598;50.508;10.436;2023-05-10T04:31:32;12.70;99.90
16964;DHT22;8598;50.508;10.436;2023-05-10T04:33:59;12.70;99.90
16964;DHT22;8598;50.508;10.436;2023-05-10T04:36:27;12.70;99.90
16964;DHT22;8598;50.508;10.436;2023-05-10T04:38:54;12.70;99.90
16964;DHT22;8598;50.508;10.436;2023-05-10T04:41:21;12.70;99.90
16964;DHT22;8598;50.508;10.436;2023-05-10T04:43:47;12.80;99.90
16964;DHT22;8598;50.508;10.436;2023-05-10T04:46:15;12.80;99.90
16964;DHT22;8598;50.508;10.436;2023-05-10T04:48:42;12.80;99.90
16964;DHT22;8598;50.508;10.436;2023-05-10T04:51:08;12.80;99.90
16964;DHT22;8598;50.508;10.436;2023-05-10T04:53:36;12.90;99.90
16964;DHT22;8598;50.508;10.436;2023-05-10T04:56:03;12.90;99.90
16964;DHT22;8598;50.508;10.436;2023-05-10T04:58:30;12.90;99.90
16964;DHT22;8598;50.508;10.436;2023-05-10T05:00:56;12.90;99.90
16964;DHT22;8598;50.508;10.436;2023-05-10T05:03:23;12.90;99.90
16964;DHT22;8598;50.508;10.436;2023-05-10T05:05:50;12.90;99.90
16964;DHT22;8598;50.508;10.436;2023-05-10T05:08:17;13.00;99.90
16964;DHT22;8598;50.508;10.436;2023-05-10T05:10:44;12.90;99.90
16964;DHT22;8598;50.508;10.436;2023-05-10T05:13:12;12.90;99.90
16964;DHT22;8598;50.508;10.436;2023-05-10T05:15:39;13.00;99.90
16964;DHT22;8598;50.508;10.436;2023-05-10T05:18:05;13.00;99.90
16964;DHT22;8598;50.508;10.436;2023-05-10T05:20:32;13.00;99.90
16964;DHT22;8598;50.508;10.436;2023-05-10T05:22:59;13.10;99.90
16964;DHT22;8598;50.508;10.436;2023-05-10T05:25:26;13.00;99.90
16964;DHT22;8598;50.508;10.436;2023-05-10T05:27:54;13.10;99.90
16964;DHT22;8598;50.508;10.436;2023-05-10T05:30:20;13.10;99.90
16964;DHT22;8598;50.508;10.436;2023-05-10T05:32:47;13.20;99.90
16964;DHT22;8598;50.508;10.436;2023-05-10T05:35:13;13.30;99.90
16964;DHT22;8598;50.508;10.436;2023-05-10T05:37:40;13.30;99.90
16964;DHT22;8598;50.508;10.436;2023-05-10T05:40:08;13.30;99.90
16964;DHT22;8598;50.508;10.436;2023-05-10T05:42:34;13.30;99.90
16964;DHT22;8598;50.508;10.436;2023-05-10T05:45:03;13.40;99.90
16964;DHT22;8598;50.508;10.436;2023-05-10T05:47:30;13.40;99.90
16964;DHT22;8598;50.508;10.436;2023-05-10T05:49:57;13.40;99.90
16964;DHT22;8598;50.508;10.436;2023-05-10T05:52:23;13.40;99.90
16964;DHT22;8598;50.508;10.436;2023-05-10T05:54:50;13.40;99.90
16964;DHT22;8598;50.508;10.436;2023-05-10T05:57:17;13.50;99.90
16964;DHT22;8598;50.508;10.436;2023-05-10T05:59:43;13.50;99.90
16964;DHT22;8598;50.508;10.436;2023-05-10T06:02:12;13.60;99.90
16964;DHT22;8598;50.508;10.436;2023-05-10T06:04:39;13.60;99.90
16964;DHT22;8598;50.508;10.436;2023-05-10T06:07:05;13.70;99.90
16964;DHT22;8598;50.508;10.436;2023-05-10T06:09:32;13.70;99.90
16964;DHT22;8598;50.508;10.436;2023-05-10T06:11:58;13.70;99.90
16964;DHT22;8598;50.508;10.436;2023-05-10T06:14:25;13.70;99.90
16964;DHT22;8598;50.508;10.436;2023-05-10T06:16:52;13.60;99.90
16964;DHT22;8598;50.508;10.436;2023-05-10T06:19:19;13.60;99.90
16964;DHT22;8598;50.508;10.436;2023-05-10T06:21:46;13.60;99.90
16964;DHT22;8598;50.508;10.436;2023-05-10T06:24:13;13.60;99.90
16964;DHT22;8598;50.508;10.436;2023-05-10T06:26:39;13.60;99.90
16964;DHT22;8598;50.508;10.436;2023-05-10T06:29:06;13.70;99.90
16964;DHT22;8598;50.508;10.436;2023-05-10T06:31:32;13.90;99.90
16964;DHT22;8598;50.508;10.436;2023-05-10T06:33:59;14.00;99.90
16964;DHT22;8598;50.508;10.436;2023-05-10T06:36:27;14.30;99.90
16964;DHT22;8598;50.508;10.436;2023-05-10T06:38:54;14.50;99.90
16964;DHT22;8598;50.508;10.436;2023-05-10T06:41:22;14.70;99.90
16964;DHT22;8598;50.508;10.436;2023-05-10T06:43:49;15.20;99.90
16964;DHT22;8598;50.508;10.436;2023-05-10T06:46:15;15.50;99.90
16964;DHT22;8598;50.508;10.436;2023-05-10T06:48:42;16.00;99.90
16964;DHT22;8598;50.508;10.436;2023-05-10T06:51:09;16.20;99.90
16964;DHT22;8598;50.508;10.436;2023-05-10T06:53:36;16.20;99.90
16964;DHT22;8598;50.508;10.436;2023-05-10T06:56:03;16.20;99.90
16964;DHT22;8598;50.508;10.436;2023-05-10T06:58:30;16.00;99.90
16964;DHT22;8598;50.508;10.436;2023-05-10T07:01:02;16.00;99.90
16964;DHT22;8598;50.508;10.436;2023-05-10T07:03:28;16.00;99.90
16964;DHT22;8598;50.508;10.436;2023-05-10T07:06:00;16.00;99.90
16964;DHT22;8598;50.508;10.436;2023-05-10T07:08:28;15.90;99.90
16964;DHT22;8598;50.508;10.436;2023-05-10T07:11:00;15.80;99.90
16964;DHT22;8598;50.508;10.436;2023-05-10T07:13:28;15.80;99.90
16964;DHT22;8598;50.508;10.436;2023-05-10T07:15:55;15.60;99.90
16964;DHT22;8598;50.508;10.436;2023-05-10T07:18:22;15.70;99.90
16964;DHT22;8598;50.508;10.436;2023-05-10T07:20:48;15.90;99.90
16964;DHT22;8598;50.508;10.436;2023-05-10T07:23:15;16.00;99.90
16964;DHT22;8598;50.508;10.436;2023-05-10T07:25:44;15.80;99.90
16964;DHT22;8598;50.508;10.436;2023-05-10T07:28:13;15.80;99.90
16964;DHT22;8598;50.508;10.436;2023-05-10T07:30:39;15.70;99.90
16964;DHT22;8598;50.508;10.436;2023-05-10T07:33:06;15.80;99.90
16964;DHT22;8598;50.508;10.436;2023-05-10T07:35:33;16.00;99.90
16964;DHT22;8598;50.508;10.436;2023-05-10T07:38:00;15.90;99.90
16964;DHT22;8598;50.508;10.436;2023-05-10T07:40:28;15.80;99.90
16964;DHT22;8598;50.508;10.436;2023-05-10T07:42:54;15.70;99.90
16964;DHT22;8598;50.508;10.436;2023-05-10T07:45:23;15.70;99.90
16964;DHT22;8598;50.508;10.436;2023-05-10T07:47:49;15.40;99.90
16964;DHT22;8598;50.508;10.436;2023-05-10T07:50:16;15.20;99.90
16964;DHT22;8598;50.508;10.436;2023-05-10T07:52:43;15.10;99.90
16964;DHT22;8598;50.508;10.436;2023-05-10T07:55:10;15.30;99.90
16964;DHT22;8598;50.508;10.436;2023-05-10T07:57:37;15.40;99.90
16964;DHT22;8598;50.508;10.436;2023-05-10T08:00:04;15.40;99.90
16964;DHT22;8598;50.508;10.436;2023-05-10T08:02:33;15.50;99.90
16964;DHT22;8598;50.508;10.436;2023-05-10T08:05:00;15.50;99.90
16964;DHT22;8598;50.508;10.436;2023-05-10T08:07:27;15.80;99.90
16964;DHT22;8598;50.508;10.436;2023-05-10T08:09:53;15.90;99.90
16964;DHT22;8598;50.508;10.436;2023-05-10T08:12:20;16.10;99.90
16964;DHT22;8598;50.508;10.436;2023-05-10T08:14:47;16.50;99.90
16964;DHT22;8598;50.508;10.436;2023-05-10T08:17:13;17.10;99.90
16964;DHT22;8598;50.508;10.436;2023-05-10T08:19:41;17.70;99.90
16964;DHT22;8598;50.508;10.436;2023-05-10T08:22:08;18.00;99.90
16964;DHT22;8598;50.508;10.436;2023-05-10T08:24:34;18.20;99.90
16964;DHT22;8598;50.508;10.436;2023-05-10T08:27:04;18.30;99.90
16964;DHT22;8598;50.508;10.436;2023-05-10T08:29:30;18.50;99.90
16964;DHT22;8598;50.508;10.436;2023-05-10T08:31:57;19.10;99.90
16964;DHT22;8598;50.508;10.436;2023-05-10T08:34:24;19.20;99.90
16964;DHT22;8598;50.508;10.436;2023-05-10T08:36:52;18.80;99.90
16964;DHT22;8598;50.508;10.436;2023-05-10T08:39:19;18.40;99.90
16964;DHT22;8598;50.508;10.436;2023-05-10T08:41:47;18.10;99.90
16964;DHT22;8598;50.508;10.436;2023-05-10T08:44:15;17.80;99.90
16964;DHT22;8598;50.508;10.436;2023-05-10T08:46:45;17.60;99.90
16964;DHT22;8598;50.508;10.436;2023-05-10T08:49:13;17.30;99.90
16964;DHT22;8598;50.508;10.436;2023-05-10T08:51:51;17.20;99.90
16964;DHT22;8598;50.508;10.436;2023-05-10T08:54:20;17.10;99.90
16964;DHT22;8598;50.508;10.436;2023-05-10T08:56:47;16.90;99.90
16964;DHT22;8598;50.508;10.436;2023-05-10T08:59:14;17.40;99.90
16964;DHT22;8598;50.508;10.436;2023-05-10T09:01:43;17.60;99.90
16964;DHT22;8598;50.508;10.436;2023-05-10T09:04:11;18.20;99.90
16964;DHT22;8598;50.508;10.436;2023-05-10T09:06:38;17.60;99.90
16964;DHT22;8598;50.508;10.436;2023-05-10T09:09:05;17.20;99.90
16964;DHT22;8598;50.508;10.436;2023-05-10T09:11:33;17.00;99.90
16964;DHT22;8598;50.508;10.436;2023-05-10T09:14:01;17.20;99.90
16964;DHT22;8598;50.508;10.436;2023-05-10T09:16:27;17.70;99.90
16964;DHT22;8598;50.508;10.436;2023-05-10T09:18:54;18.00;99.90
16964;DHT22;8598;50.508;10.436;2023-05-10T09:21:21;18.80;99.90
16964;DHT22;8598;50.508;10.436;2023-05-10T09:23:48;19.40;99.90
16964;DHT22;8598;50.508;10.436;2023-05-10T09:26:15;19.20;99.90
16964;DHT22;8598;50.508;10.436;2023-05-10T09:28:54;19.10;99.90
16964;DHT22;8598;50.508;10.436;2023-05-10T09:31:21;18.90;99.90
16964;DHT22;8598;50.508;10.436;2023-05-10T09:33:49;18.60;99.90
16964;DHT22;8598;50.508;10.436;2023-05-10T09:36:16;18.50;99.90
16964;DHT22;8598;50.508;10.436;2023-05-10T09:38:46;18.00;99.90
16964;DHT22;8598;50.508;10.436;2023-05-10T09:41:18;18.20;99.90
16964;DHT22;8598;50.508;10.436;2023-05-10T09:43:45;18.70;99.90
16964;DHT22;8598;50.508;10.436;2023-05-10T09:46:13;19.00;99.90
16964;DHT22;8598;50.508;10.436;2023-05-10T09:48:43;19.00;99.90
16964;DHT22;8598;50.508;10.436;2023-05-10T09:51:10;19.00;99.90
16964;DHT22;8598;50.508;10.436;2023-05-10T09:53:36;19.10;99.90
16964;DHT22;8598;50.508;10.436;2023-05-10T09:56:03;19.00;99.90
16964;DHT22;8598;50.508;10.436;2023-05-10T09:58:30;18.80;99.90
16964;DHT22;8598;50.508;10.436;2023-05-10T10:00:57;18.70;99.90
16964;DHT22;8598;50.508;10.436;2023-05-10T10:03:25;18.70;99.90
16964;DHT22;8598;50.508;10.436;2023-05-10T10:05:52;18.50;99.90
16964;DHT22;8598;50.508;10.436;2023-05-10T10:08:21;18.60;99.90
16964;DHT22;8598;50.508;10.436;2023-05-10T10:10:48;18.60;99.90
16964;DHT22;8598;50.508;10.436;2023-05-10T10:13:15;18.40;99.90
16964;DHT22;8598;50.508;10.436;2023-05-10T10:15:42;18.20;99.90
16964;DHT22;8598;50.508;10.436;2023-05-10T10:18:12;18.00;99.90
16964;DHT22;8598;50.508;10.436;2023-05-10T10:20:42;17.70;99.90
16964;DHT22;8598;50.508;10.436;2023-05-10T10:23:08;17.30;99.90
16964;DHT22;8598;50.508;10.436;2023-05-10T10:25:35;17.10;99.90
16964;DHT22;8598;50.508;10.436;2023-05-10T10:28:11;16.80;99.90
16964;DHT22;8598;50.508;10.436;2023-05-10T10:30:42;16.60;99.90
16964;DHT22;8598;50.508;10.436;2023-05-10T10:33:29;16.50;99.90
16964;DHT22;8598;50.508;10.436;2023-05-10T10:36:00;16.40;99.90
16964;DHT22;8598;50.508;10.436;2023-05-10T10:38:36;16.50;99.90
16964;DHT22;8598;50.508;10.436;2023-05-10T10:41:12;16.70;99.90
16964;DHT22;8598;50.508;10.436;2023-05-10T10:44:23;16.80;99.90
16964;DHT22;8598;50.508;10.436;2023-05-10T10:47:04;17.00;99.90
16964;DHT22;8598;50.508;10.436;2023-05-10T10:49:37;17.20;99.90
16964;DHT22;8598;50.508;10.436;2023-05-10T10:52:20;17.20;99.90
16964;DHT22;8598;50.508;10.436;2023-05-10T10:54:51;17.10;99.90
16964;DHT22;8598;50.508;10.436;2023-05-10T10:57:19;16.90;99.90
16964;DHT22;8598;50.508;10.436;2023-05-10T10:59:47;16.70;99.90
16964;DHT22;8598;50.508;10.436;2023-05-10T11:02:45;16.60;99.90
16964;DHT22;8598;50.508;10.436;2023-05-10T11:05:37;16.40;99.90
16964;DHT22;8598;50.508;10.436;2023-05-10T11:08:13;16.10;99.90
16964;DHT22;8598;50.508;10.436;2023-05-10T11:13:37;15.70;99.90
16964;DHT22;8598;50.508;10.436;2023-05-10T11:16:13;15.60;99.90
16964;DHT22;8598;50.508;10.436;2023-05-10T11:18:40;15.40;99.90
16964;DHT22;8598;50.508;10.436;2023-05-10T11:21:08;15.20;99.90
16964;DHT22;8598;50.508;10.436;2023-05-10T11:23:50;15.30;99.90
16964;DHT22;8598;50.508;10.436;2023-05-10T11:26:17;15.40;99.90
16964;DHT22;8598;50.508;10.436;2023-05-10T11:28:44;15.40;99.90
16964;DHT22;8598;50.508;10.436;2023-05-10T11:31:13;15.40;99.90
16964;DHT22;8598;50.508;10.436;2023-05-10T11:33:43;15.30;99.90
16964;DHT22;8598;50.508;10.436;2023-05-10T11:36:11;15.30;99.90
16964;DHT22;8598;50.508;10.436;2023-05-10T11:38:38;15.30;99.90
16964;DHT22;8598;50.508;10.436;2023-05-10T11:41:08;15.30;99.90
16964;DHT22;8598;50.508;10.436;2023-05-10T11:43:35;15.40;99.90
16964;DHT22;8598;50.508;10.436;2023-05-10T11:46:04;15.60;99.90
16964;DHT22;8598;50.508;10.436;2023-05-10T11:48:31;15.80;99.90
16964;DHT22;8598;50.508;10.436;2023-05-10T11:50:57;16.00;99.90
16964;DHT22;8598;50.508;10.436;2023-05-10T11:53:26;16.00;99.90
16964;DHT22;8598;50.508;10.436;2023-05-10T11:55:52;16.10;99.90
16964;DHT22;8598;50.508;10.436;2023-05-10T11:58:20;16.20;99.90
16964;DHT22;8598;50.508;10.436;2023-05-10T12:00:48;16.40;99.90
16964;DHT22;8598;50.508;10.436;2023-05-10T12:03:16;16.60;99.90
16964;DHT22;8598;50.508;10.436;2023-05-10T12:05:43;16.80;99.90
16964;DHT22;8598;50.508;10.436;2023-05-10T12:08:13;17.00;99.90
16964;DHT22;8598;50.508;10.436;2023-05-10T12:10:41;17.20;99.90
16964;DHT22;8598;50.508;10.436;2023-05-10T12:13:11;17.30;99.90
16964;DHT22;8598;50.508;10.436;2023-05-10T12:15:40;17.20;99.90
16964;DHT22;8598;50.508;10.436;2023-05-10T12:18:08;17.10;99.90
16964;DHT22;8598;50.508;10.436;2023-05-10T12:20:36;17.10;99.90
16964;DHT22;8598;50.508;10.436;2023-05-10T12:23:02;17.10;99.90
16964;DHT22;8598;50.508;10.436;2023-05-10T12:25:32;17.00;99.90
16964;DHT22;8598;50.508;10.436;2023-05-10T12:28:00;16.80;99.90
16964;DHT22;8598;50.508;10.436;2023-05-10T12:30:28;16.80;99.90
16964;DHT22;8598;50.508;10.436;2023-05-10T12:33:00;16.70;99.90
16964;DHT22;8598;50.508;10.436;2023-05-10T12:35:30;16.60;99.90
16964;DHT22;8598;50.508;10.436;2023-05-10T12:37:56;16.50;99.90
16964;DHT22;8598;50.508;10.436;2023-05-10T12:40:23;16.30;99.90
16964;DHT22;8598;50.508;10.436;2023-05-10T12:42:50;16.10;99.90
16964;DHT22;8598;50.508;10.436;2023-05-10T12:45:17;15.80;99.90
16964;DHT22;8598;50.508;10.436;2023-05-10T12:47:44;15.60;99.90
16964;DHT22;8598;50.508;10.436;2023-05-10T12:50:12;15.30;99.90
16964;DHT22;8598;50.508;10.436;2023-05-10T12:52:39;15.10;99.90
16964;DHT22;8598;50.508;10.436;2023-05-10T12:55:06;14.80;99.90
16964;DHT22;8598;50.508;10.436;2023-05-10T12:57:33;14.70;99.90
16964;DHT22;8598;50.508;10.436;2023-05-10T12:59:59;14.70;99.90
16964;DHT22;8598;50.508;10.436;2023-05-10T13:02:26;14.60;99.90
16964;DHT22;8598;50.508;10.436;2023-05-10T13:04:53;14.50;99.90
16964;DHT22;8598;50.508;10.436;2023-05-10T13:07:21;14.50;99.90
16964;DHT22;8598;50.508;10.436;2023-05-10T13:09:47;14.60;99.90
16964;DHT22;8598;50.508;10.436;2023-05-10T13:12:14;14.60;99.90
16964;DHT22;8598;50.508;10.436;2023-05-10T13:14:40;14.50;99.90
16964;DHT22;8598;50.508;10.436;2023-05-10T13:17:07;14.70;99.90
16964;DHT22;8598;50.508;10.436;2023-05-10T13:19:34;14.70;99.90
16964;DHT22;8598;50.508;10.436;2023-05-10T13:22:01;14.70;99.90
16964;DHT22;8598;50.508;10.436;2023-05-10T13:24:29;14.90;99.90
16964;DHT22;8598;50.508;10.436;2023-05-10T13:26:55;15.00;99.90
16964;DHT22;8598;50.508;10.436;2023-05-10T13:29:22;15.10;99.90
16964;DHT22;8598;50.508;10.436;2023-05-10T13:31:48;15.10;99.90
16964;DHT22;8598;50.508;10.436;2023-05-10T13:34:15;15.20;99.90
16964;DHT22;8598;50.508;10.436;2023-05-10T13:36:42;15.10;99.90
16964;DHT22;8598;50.508;10.436;2023-05-10T13:39:08;15.00;99.90
16964;DHT22;8598;50.508;10.436;2023-05-10T13:41:36;15.00;99.90
16964;DHT22;8598;50.508;10.436;2023-05-10T13:44:03;15.00;99.90
16964;DHT22;8598;50.508;10.436;2023-05-10T13:46:30;15.00;99.90
16964;DHT22;8598;50.508;10.436;2023-05-10T13:48:56;14.80;99.90
16964;DHT22;8598;50.508;10.436;2023-05-10T13:51:23;14.70;99.90
16964;DHT22;8598;50.508;10.436;2023-05-10T13:53:49;14.50;99.90
16964;DHT22;8598;50.508;10.436;2023-05-10T13:56:17;14.40;99.90
16964;DHT22;8598;50.508;10.436;2023-05-10T13:58:45;14.50;99.90
16964;DHT22;8598;50.508;10.436;2023-05-10T14:01:12;14.50;99.90
16964;DHT22;8598;50.508;10.436;2023-05-10T14:03:39;14.30;99.90
16964;DHT22;8598;50.508;10.436;2023-05-10T14:06:06;14.30;99.90
16964;DHT22;8598;50.508;10.436;2023-05-10T14:08:33;14.40;99.90
16964;DHT22;8598;50.508;10.436;2023-05-10T14:11:00;14.30;99.90
16964;DHT22;8598;50.508;10.436;2023-05-10T14:13:27;14.30;99.90
16964;DHT22;8598;50.508;10.436;2023-05-10T14:15:55;14.20;99.90
16964;DHT22;8598;50.508;10.436;2023-05-10T14:18:22;14.10;99.90
16964;DHT22;8598;50.508;10.436;2023-05-10T14:20:48;14.10;99.90
16964;DHT22;8598;50.508;10.436;2023-05-10T14:23:15;14.00;99.90
16964;DHT22;8598;50.508;10.436;2023-05-10T14:25:42;14.00;99.90
16964;DHT22;8598;50.508;10.436;2023-05-10T14:28:09;14.10;99.90
16964;DHT22;8598;50.508;10.436;2023-05-10T14:30:35;14.20;99.90
16964;DHT22;8598;50.508;10.436;2023-05-10T14:33:04;14.30;99.90
16964;DHT22;8598;50.508;10.436;2023-05-10T14:35:30;14.40;99.90
16964;DHT22;8598;50.508;10.436;2023-05-10T14:37:57;14.50;99.90
16964;DHT22;8598;50.508;10.436;2023-05-10T14:40:24;14.60;99.90
16964;DHT22;8598;50.508;10.436;2023-05-10T14:42:51;14.80;99.90
16964;DHT22;8598;50.508;10.436;2023-05-10T14:45:18;15.00;99.90
16964;DHT22;8598;50.508;10.436;2023-05-10T14:47:44;15.10;99.90
16964;DHT22;8598;50.508;10.436;2023-05-10T14:50:12;15.20;99.90
16964;DHT22;8598;50.508;10.436;2023-05-10T14:52:39;15.40;99.90
16964;DHT22;8598;50.508;10.436;2023-05-10T14:55:07;15.70;99.90
16964;DHT22;8598;50.508;10.436;2023-05-10T14:57:33;15.70;99.90
16964;DHT22;8598;50.508;10.436;2023-05-10T15:00:00;15.70;99.90
16964;DHT22;8598;50.508;10.436;2023-05-10T15:02:27;15.80;99.90
16964;DHT22;8598;50.508;10.436;2023-05-10T15:04:54;15.90;99.90
16964;DHT22;8598;50.508;10.436;2023-05-10T15:07:22;16.00;99.90
16964;DHT22;8598;50.508;10.436;2023-05-10T15:09:49;16.20;99.90
16964;DHT22;8598;50.508;10.436;2023-05-10T15:12:17;16.20;99.90
16964;DHT22;8598;50.508;10.436;2023-05-10T15:14:43;16.30;99.90
16964;DHT22;8598;50.508;10.436;2023-05-10T15:17:10;16.30;99.90
16964;DHT22;8598;50.508;10.436;2023-05-10T15:19:37;16.40;99.90
16964;DHT22;8598;50.508;10.436;2023-05-10T15:22:04;16.30;99.90
16964;DHT22;8598;50.508;10.436;2023-05-10T15:24:32;16.00;99.90
16964;DHT22;8598;50.508;10.436;2023-05-10T15:26:58;16.20;99.90
16964;DHT22;8598;50.508;10.436;2023-05-10T15:29:25;16.10;99.90
16964;DHT22;8598;50.508;10.436;2023-05-10T15:31:52;16.10;99.90
16964;DHT22;8598;50.508;10.436;2023-05-10T15:34:19;16.20;99.90
16964;DHT22;8598;50.508;10.436;2023-05-10T15:36:45;16.00;99.90
16964;DHT22;8598;50.508;10.436;2023-05-10T15:39:12;15.90;99.90
16964;DHT22;8598;50.508;10.436;2023-05-10T15:41:40;15.50;99.90